createdAt,value
2018-09-13T00:00:53.472Z,77.69
2018-09-13T00:03:22.172Z,77.96
2018-09-13T00:05:50.865Z,78.35
2018-09-13T00:08:19.652Z,79.18
2018-09-13T00:10:48.257Z,78.96
2018-09-13T00:13:16.896Z,79.52
2018-09-13T00:15:45.512Z,79.77
2018-09-13T00:18:14.237Z,79.72
2018-09-13T00:20:42.813Z,79.38
2018-09-13T00:23:11.412Z,80.18
2018-09-13T00:25:40.056Z,80.36
2018-09-13T00:28:08.668Z,80.76
2018-09-13T00:30:37.288Z,81.55
2018-09-13T00:33:05.863Z,81.64
2018-09-13T00:35:34.440Z,81.83
2018-09-13T00:38:03.029Z,82.09
2018-09-13T00:40:31.616Z,82.51
2018-09-13T00:43:00.238Z,83.20
2018-09-13T00:45:28.880Z,83.23
2018-09-13T00:47:57.472Z,83.16
2018-09-13T00:50:26.083Z,83.62
2018-09-13T00:52:54.667Z,83.38
2018-09-13T00:55:23.316Z,83.30
2018-09-13T00:57:51.901Z,83.49
2018-09-13T01:00:20.497Z,83.87
2018-09-13T01:02:49.202Z,84.78
2018-09-13T01:05:17.815Z,84.89
2018-09-13T01:07:46.406Z,85.81
2018-09-13T01:10:14.976Z,86.17
2018-09-13T01:12:43.634Z,86.32
2018-09-13T01:15:12.589Z,85.83
2018-09-13T01:17:41.178Z,85.96
2018-09-13T01:20:09.848Z,86.13
2018-09-13T01:22:38.464Z,85.85
2018-09-13T01:25:07.121Z,86.07
2018-09-13T01:27:35.735Z,85.97
2018-09-13T01:30:04.327Z,85.65
2018-09-13T01:32:32.904Z,86.42
2018-09-13T01:35:01.493Z,86.15
2018-09-13T01:37:30.138Z,86.57
2018-09-13T01:39:58.745Z,87.28
2018-09-13T01:42:27.368Z,88.17
2018-09-13T01:44:55.966Z,88.41
2018-09-13T01:47:24.560Z,88.67
2018-09-13T01:49:53.626Z,88.62
2018-09-13T01:52:22.224Z,88.63
2018-09-13T01:54:50.804Z,88.89
2018-09-13T01:57:19.417Z,89.97
2018-09-13T01:59:48.029Z,89.69
2018-09-13T02:02:16.864Z,89.91
2018-09-13T02:04:45.464Z,90.53
2018-09-13T02:07:14.254Z,90.09
2018-09-13T02:09:42.889Z,90.10
2018-09-13T02:12:11.517Z,90.44
2018-09-13T02:14:40.445Z,91.20
2018-09-13T02:17:09.054Z,90.95
2018-09-13T02:19:37.644Z,90.60
2018-09-13T02:22:06.529Z,90.87
2018-09-13T02:24:35.125Z,91.00
2018-09-13T02:27:03.760Z,90.42
2018-09-13T02:29:32.384Z,89.79
2018-09-13T02:32:01.004Z,89.65
2018-09-13T02:34:29.620Z,89.72
2018-09-13T02:36:58.213Z,90.45
2018-09-13T02:39:27.258Z,90.11
2018-09-13T02:41:56.071Z,90.32
2018-09-13T02:44:24.685Z,91.23
2018-09-13T02:46:53.353Z,90.72
2018-09-13T02:49:22.043Z,91.35
2018-09-13T02:51:50.869Z,91.65
2018-09-13T02:54:19.490Z,92.14
2018-09-13T02:56:48.085Z,92.13
2018-09-13T02:59:16.702Z,91.75
2018-09-13T03:01:45.333Z,92.41
2018-09-13T03:04:13.974Z,92.35
2018-09-13T03:06:42.676Z,92.73
2018-09-13T03:09:12.786Z,93.26
2018-09-13T03:11:42.492Z,93.31
2018-09-13T03:14:11.357Z,92.95
2018-09-13T03:16:40.081Z,93.26
2018-09-13T03:19:08.789Z,93.32
2018-09-13T03:21:37.369Z,93.22
2018-09-13T03:24:06.061Z,93.34
2018-09-13T03:26:35.006Z,92.81
2018-09-13T03:29:03.875Z,92.33
2018-09-13T03:31:32.644Z,92.86
2018-09-13T03:34:01.620Z,92.83
2018-09-13T03:36:30.317Z,93.15
2018-09-13T03:38:58.901Z,93.18
2018-09-13T03:41:27.558Z,92.75
2018-09-13T03:43:56.273Z,92.83
2018-09-13T03:46:24.995Z,92.62
2018-09-13T03:48:53.628Z,93.40
2018-09-13T03:51:22.256Z,92.67
2018-09-13T03:53:50.844Z,92.72
2018-09-13T03:56:19.431Z,92.64
2018-09-13T03:58:48.104Z,92.03
2018-09-13T04:01:16.706Z,91.76
2018-09-13T04:03:45.485Z,92.39
2018-09-13T04:06:14.117Z,92.25
2018-09-13T04:08:42.781Z,92.79
2018-09-13T04:11:11.404Z,92.26
2018-09-13T04:13:40.044Z,92.10
2018-09-13T04:16:08.652Z,91.63
2018-09-13T04:18:37.509Z,91.65
2018-09-13T04:21:06.226Z,92.00
2018-09-13T04:23:34.864Z,91.24
2018-09-13T04:26:03.616Z,91.39
2018-09-13T04:28:32.213Z,90.46
2018-09-13T04:31:00.796Z,91.04
2018-09-13T04:33:29.416Z,90.52
2018-09-13T04:35:58.108Z,91.40
2018-09-13T04:38:26.865Z,90.97
2018-09-13T04:40:55.460Z,90.60
2018-09-13T04:43:24.112Z,90.56
2018-09-13T04:45:52.749Z,90.15
2018-09-13T04:48:21.379Z,90.28
2018-09-13T04:50:49.972Z,89.75
2018-09-13T04:53:18.569Z,89.59
2018-09-13T04:55:47.220Z,90.13
2018-09-13T04:58:15.881Z,89.15
2018-09-13T05:00:44.577Z,89.36
2018-09-13T05:03:13.214Z,89.11
2018-09-13T05:05:41.858Z,88.80
2018-09-13T05:08:10.459Z,87.87
2018-09-13T05:10:45.716Z,86.72
2018-09-13T05:13:14.298Z,86.42
2018-09-13T05:15:42.891Z,85.91
2018-09-13T05:18:11.497Z,86.14
2018-09-13T05:20:40.104Z,85.52
2018-09-13T05:23:08.700Z,85.00
2018-09-13T05:25:37.400Z,84.75
2018-09-13T05:28:06.408Z,84.31
2018-09-13T05:30:35.037Z,84.40
2018-09-13T05:33:03.636Z,84.03
2018-09-13T05:35:32.226Z,83.81
2018-09-13T05:38:00.808Z,83.62
2018-09-13T05:40:29.775Z,83.29
2018-09-13T05:42:58.437Z,82.73
2018-09-13T05:45:27.422Z,81.94
2018-09-13T05:47:56.018Z,82.43
2018-09-13T05:50:24.708Z,81.35
2018-09-13T05:52:53.392Z,80.48
2018-09-13T05:55:22.013Z,79.09
2018-09-13T05:57:50.619Z,77.58
2018-09-13T06:00:19.228Z,76.00
2018-09-13T06:02:47.863Z,74.91
2018-09-13T06:05:17.105Z,74.22
2018-09-13T06:07:45.729Z,72.17
2018-09-13T06:10:14.648Z,68.52
2018-09-13T06:12:43.329Z,65.59
2018-09-13T06:15:11.918Z,65.18
2018-09-13T06:17:40.601Z,62.60
2018-09-13T06:20:09.449Z,59.18
2018-09-13T06:22:38.661Z,55.78
2018-09-13T06:25:08.832Z,55.00
2018-09-13T06:27:38.176Z,54.25
2018-09-13T06:30:07.830Z,52.50
2018-09-13T06:32:37.073Z,51.62
2018-09-13T06:35:06.772Z,49.41
2018-09-13T06:37:35.964Z,47.59
2018-09-13T06:40:05.148Z,45.20
2018-09-13T06:42:34.446Z,44.48
2018-09-13T06:45:03.817Z,43.05
2018-09-13T06:47:33.100Z,42.51
2018-09-13T06:50:02.339Z,42.92
2018-09-13T06:52:31.508Z,43.45
2018-09-13T06:55:00.678Z,42.83
2018-09-13T06:57:29.920Z,42.60
2018-09-13T06:59:59.693Z,44.43
2018-09-13T07:02:28.966Z,45.14
2018-09-13T07:04:58.366Z,47.44
2018-09-13T07:07:27.672Z,47.37
2018-09-13T07:09:56.927Z,46.36
2018-09-13T07:12:26.140Z,43.98
2018-09-13T07:14:55.306Z,42.78
2018-09-13T07:17:24.536Z,43.58
2018-09-13T07:19:53.735Z,44.66
2018-09-13T07:22:22.991Z,42.06
2018-09-13T07:24:52.148Z,39.71
2018-09-13T07:27:21.347Z,37.82
2018-09-13T07:29:51.224Z,36.69
2018-09-13T07:32:20.617Z,35.70
2018-09-13T07:34:49.800Z,36.07
2018-09-13T07:37:19.245Z,35.42
2018-09-13T07:39:48.469Z,34.51
2018-09-13T07:42:17.648Z,36.51
2018-09-13T07:44:46.872Z,37.49
2018-09-13T07:47:16.065Z,37.70
2018-09-13T07:49:45.330Z,38.87
2018-09-13T07:52:14.728Z,39.18
2018-09-13T07:54:43.916Z,38.84
2018-09-13T07:57:13.119Z,37.72
2018-09-13T07:59:42.288Z,36.96
2018-09-13T08:02:11.532Z,37.41
2018-09-13T08:04:40.771Z,36.62
2018-09-13T08:07:09.955Z,36.25
2018-09-13T08:09:39.176Z,35.34
2018-09-13T08:12:08.504Z,35.69
2018-09-13T08:14:37.737Z,34.15
2018-09-13T08:17:06.941Z,34.68
2018-09-13T08:19:36.132Z,33.26
2018-09-13T08:22:05.369Z,31.86
2018-09-13T08:24:34.685Z,31.93
2018-09-13T08:27:03.891Z,31.46
2018-09-13T08:29:33.414Z,30.40
2018-09-13T08:32:02.585Z,30.18
2018-09-13T08:34:31.776Z,31.17
2018-09-13T08:37:03.063Z,32.94
2018-09-13T08:39:32.445Z,33.44
2018-09-13T08:42:01.777Z,35.73
2018-09-13T08:44:30.965Z,38.16
2018-09-13T08:47:00.666Z,39.04
2018-09-13T08:49:29.849Z,40.77
2018-09-13T08:51:59.067Z,42.96
2018-09-13T08:54:28.516Z,43.24
2018-09-13T08:56:57.773Z,45.03
2018-09-13T08:59:27.453Z,46.26
2018-09-13T09:01:56.680Z,47.03
2018-09-13T09:04:25.843Z,47.82
2018-09-13T09:06:55.601Z,47.40
2018-09-13T09:09:25.112Z,48.85
2018-09-13T09:11:54.297Z,48.57
2018-09-13T09:14:23.795Z,47.93
2018-09-13T09:16:53.196Z,48.58
2018-09-13T09:19:22.433Z,48.72
2018-09-13T09:21:51.653Z,48.80
2018-09-13T09:24:20.816Z,50.34
2018-09-13T09:26:49.967Z,49.33
2018-09-13T09:29:19.382Z,49.10
2018-09-13T09:31:48.807Z,48.75
2018-09-13T09:34:18.092Z,50.32
2018-09-13T09:36:47.241Z,49.95
2018-09-13T09:39:16.414Z,49.69
2018-09-13T09:41:45.589Z,50.23
2018-09-13T09:44:14.877Z,49.81
2018-09-13T09:46:44.192Z,49.42
2018-09-13T09:49:13.433Z,50.49
2018-09-13T09:51:42.603Z,51.25
2018-09-13T09:54:11.755Z,50.58
2018-09-13T09:56:40.969Z,50.40
2018-09-13T09:59:10.147Z,49.46
2018-09-13T10:01:44.814Z,51.38
2018-09-13T10:04:14.036Z,50.81
2018-09-13T10:06:43.405Z,50.47
2018-09-13T10:09:12.680Z,51.09
2018-09-13T10:11:41.848Z,50.55
2018-09-13T10:14:11.060Z,50.58
2018-09-13T10:16:45.412Z,51.22
2018-09-13T10:19:20.004Z,51.95
2018-09-13T10:21:54.836Z,51.70
2018-09-13T10:24:30.184Z,51.66
2018-09-13T10:27:04.836Z,51.48
2018-09-13T10:29:39.583Z,50.43
2018-09-13T10:32:14.350Z,51.84
2018-09-13T10:34:48.910Z,51.50
2018-09-13T10:37:23.366Z,50.63
2018-09-13T10:40:58.680Z,50.94
2018-09-13T10:43:33.178Z,51.89
2018-09-13T10:46:07.676Z,51.83
2018-09-13T10:48:36.932Z,51.54
2018-09-13T10:51:16.548Z,52.06
2018-09-13T10:53:50.313Z,51.90
2018-09-13T10:56:19.527Z,51.63
2018-09-13T10:58:49.078Z,51.10
2018-09-13T11:01:18.288Z,51.80
2018-09-13T11:03:47.448Z,50.84
2018-09-13T11:06:16.671Z,51.22
2018-09-13T11:08:45.971Z,50.63
2018-09-13T11:11:15.283Z,50.75
2018-09-13T11:13:53.252Z,49.31
2018-09-13T11:16:22.635Z,50.32
2018-09-13T11:18:51.797Z,49.43
2018-09-13T11:21:20.964Z,48.96
2018-09-13T11:23:50.392Z,48.93
2018-09-13T11:26:19.624Z,49.67
2018-09-13T11:28:49.054Z,48.06
2018-09-13T11:31:18.314Z,47.54
2018-09-13T11:33:47.756Z,47.70
2018-09-13T11:36:17.854Z,48.33
2018-09-13T11:38:47.124Z,47.05
2018-09-13T11:41:16.322Z,47.42
2018-09-13T11:43:45.620Z,48.45
2018-09-13T11:46:15.162Z,47.72
2018-09-13T11:48:44.328Z,48.39
2018-09-13T11:51:13.738Z,47.15
2018-09-13T11:53:43.308Z,46.70
2018-09-13T11:56:12.473Z,47.45
2018-09-13T11:58:42.045Z,47.06
2018-09-13T12:01:11.504Z,47.26
2018-09-13T12:03:40.900Z,47.47
2018-09-13T12:06:10.189Z,47.50
2018-09-13T12:08:39.435Z,47.09
2018-09-13T12:11:08.685Z,47.66
2018-09-13T12:13:37.988Z,48.10
2018-09-13T12:16:07.602Z,48.77
2018-09-13T12:18:36.855Z,47.42
2018-09-13T12:21:06.065Z,48.35
2018-09-13T12:23:35.241Z,47.61
2018-09-13T12:26:04.572Z,48.19
2018-09-13T12:28:33.969Z,47.49
2018-09-13T12:31:03.138Z,47.74
2018-09-13T12:33:32.802Z,47.41
2018-09-13T12:36:02.438Z,48.35
2018-09-13T12:38:31.750Z,47.43
2018-09-13T12:41:01.860Z,47.09
2018-09-13T12:43:31.046Z,47.17
2018-09-13T12:46:00.262Z,48.12
2018-09-13T12:48:29.766Z,47.92
2018-09-13T12:50:59.007Z,48.06
2018-09-13T12:53:28.763Z,47.22
2018-09-13T12:55:58.010Z,47.05
2018-09-13T12:58:27.597Z,47.48
2018-09-13T13:00:56.821Z,46.26
2018-09-13T13:03:26.140Z,46.36
2018-09-13T13:05:56.711Z,47.03
2018-09-13T13:08:26.048Z,46.96
2018-09-13T13:10:55.329Z,46.75
2018-09-13T13:13:26.600Z,47.88
2018-09-13T13:15:55.801Z,48.44
2018-09-13T13:18:25.087Z,48.68
2018-09-13T13:20:54.269Z,48.33
2018-09-13T13:23:23.457Z,48.39
2018-09-13T13:25:53.219Z,48.18
2018-09-13T13:28:22.496Z,48.22
2018-09-13T13:30:51.996Z,49.02
2018-09-13T13:33:21.152Z,48.48
2018-09-13T13:35:50.327Z,48.84
2018-09-13T13:38:19.771Z,49.77
2018-09-13T13:40:49.332Z,49.17
2018-09-13T13:43:18.529Z,49.38
2018-09-13T13:45:47.744Z,49.89
2018-09-13T13:48:17.263Z,50.53
2018-09-13T13:50:46.440Z,49.94
2018-09-13T13:53:15.609Z,50.21
2018-09-13T13:55:44.833Z,51.07
2018-09-13T13:58:14.036Z,51.14
2018-09-13T14:00:43.320Z,50.18
2018-09-13T14:03:12.547Z,51.09
2018-09-13T14:05:41.914Z,50.00
2018-09-13T14:08:11.151Z,50.00
2018-09-13T14:10:40.344Z,49.71
2018-09-13T14:13:09.612Z,50.06
2018-09-13T14:15:38.795Z,51.22
2018-09-13T14:18:07.976Z,50.29
2018-09-13T14:20:37.334Z,50.60
2018-09-13T14:23:06.621Z,50.21
2018-09-13T14:25:35.849Z,49.93
2018-09-13T14:28:05.523Z,49.95
2018-09-13T14:30:34.834Z,50.11
2018-09-13T14:33:04.119Z,50.49
2018-09-13T14:35:33.448Z,51.18
2018-09-13T14:38:03.085Z,51.50
2018-09-13T14:40:32.359Z,51.82
2018-09-13T14:43:01.675Z,51.91
2018-09-13T14:45:30.935Z,51.97
2018-09-13T14:48:00.167Z,51.08
2018-09-13T14:50:29.390Z,52.23
2018-09-13T14:52:58.552Z,51.84
2018-09-13T14:55:27.882Z,51.98
2018-09-13T14:57:57.133Z,51.09
2018-09-13T15:00:26.346Z,50.44
2018-09-13T15:02:55.741Z,51.25
2018-09-13T15:05:25.011Z,51.87
2018-09-13T15:07:54.196Z,51.27
2018-09-13T15:10:23.725Z,51.13
2018-09-13T15:12:52.957Z,50.78
2018-09-13T15:15:22.324Z,51.33
2018-09-13T15:17:51.488Z,52.19
2018-09-13T15:20:20.671Z,52.79
2018-09-13T15:22:49.908Z,53.34
2018-09-13T15:25:19.120Z,53.64
2018-09-13T15:27:48.373Z,53.03
2018-09-13T15:30:17.553Z,53.59
2018-09-13T15:32:46.801Z,53.86
2018-09-13T15:35:16.006Z,53.53
2018-09-13T15:37:45.277Z,54.05
2018-09-13T15:40:14.484Z,53.60
2018-09-13T15:42:43.693Z,53.59
2018-09-13T15:45:12.888Z,54.72
2018-09-13T15:47:42.066Z,53.89
2018-09-13T15:50:11.334Z,54.34
2018-09-13T15:52:40.601Z,54.78
2018-09-13T15:55:10.069Z,55.49
2018-09-13T15:57:39.221Z,55.83
2018-09-13T16:00:08.717Z,55.47
2018-09-13T16:02:38.349Z,54.80
2018-09-13T16:05:07.755Z,55.48
2018-09-13T16:07:36.943Z,55.52
2018-09-13T16:10:06.313Z,55.63
2018-09-13T16:12:35.585Z,55.29
2018-09-13T16:15:04.953Z,55.52
2018-09-13T16:17:34.650Z,55.66
2018-09-13T16:20:04.427Z,55.79
2018-09-13T16:25:09.323Z,56.59
2018-09-13T16:27:38.513Z,55.97
2018-09-13T16:30:08.169Z,56.21
2018-09-13T16:32:37.746Z,56.17
2018-09-13T16:35:07.916Z,56.32
2018-09-13T16:37:42.875Z,56.63
2018-09-13T16:40:17.890Z,57.53
2018-09-13T16:42:53.719Z,56.90
2018-09-13T16:45:27.157Z,57.11
2018-09-13T16:48:02.680Z,56.56
2018-09-13T16:50:31.871Z,56.57
2018-09-13T16:53:01.572Z,55.81
2018-09-13T16:55:30.976Z,56.12
2018-09-13T16:58:00.258Z,56.18
2018-09-13T17:00:29.476Z,56.95
2018-09-13T17:02:58.757Z,56.76
2018-09-13T17:05:27.973Z,57.76
2018-09-13T17:07:56.583Z,56.82
2018-09-13T17:10:25.201Z,56.71
2018-09-13T17:12:53.792Z,57.48
2018-09-13T17:15:22.444Z,54.76
2018-09-13T17:17:51.025Z,54.17
2018-09-13T17:20:19.639Z,54.37
2018-09-13T17:22:48.502Z,54.93
2018-09-13T17:25:17.100Z,54.30
2018-09-13T17:27:45.740Z,54.16
2018-09-13T17:30:14.335Z,54.37
2018-09-13T17:32:42.918Z,55.22
2018-09-13T17:35:11.490Z,55.46
2018-09-13T17:37:40.113Z,55.75
2018-09-13T17:40:08.776Z,56.02
2018-09-13T17:42:37.374Z,56.56
2018-09-13T17:45:06.249Z,56.44
2018-09-13T17:47:35.032Z,57.48
2018-09-13T17:50:03.669Z,57.66
2018-09-13T17:52:32.274Z,58.53
2018-09-13T17:55:00.925Z,58.84
2018-09-13T17:57:29.698Z,59.11
2018-09-13T17:59:58.313Z,59.27
2018-09-13T18:02:26.924Z,59.94
2018-09-13T18:04:55.546Z,59.88
2018-09-13T18:07:24.145Z,59.99
2018-09-13T18:09:52.788Z,60.08
2018-09-13T18:12:21.457Z,60.26
2018-09-13T18:14:50.098Z,60.78
2018-09-13T18:17:18.696Z,61.03
2018-09-13T18:19:47.284Z,61.12
2018-09-13T18:22:16.169Z,61.04
2018-09-13T18:24:44.788Z,61.28
2018-09-13T18:27:13.453Z,61.23
2018-09-13T18:29:42.212Z,61.53
2018-09-13T18:32:10.927Z,61.51
2018-09-13T18:34:39.670Z,61.68
2018-09-13T18:37:08.668Z,61.57
2018-09-13T18:39:37.477Z,61.64
2018-09-13T18:42:06.827Z,61.47
2018-09-13T18:44:35.539Z,61.33
2018-09-13T18:47:04.696Z,61.56
2018-09-13T18:49:33.532Z,61.14
2018-09-13T18:52:02.562Z,60.95
2018-09-13T18:54:31.586Z,60.88
2018-09-13T18:57:00.467Z,61.26
2018-09-13T18:59:29.169Z,61.17
2018-09-13T19:01:58.039Z,61.05
2018-09-13T19:04:26.783Z,61.09
2018-09-13T19:06:55.427Z,60.87
2018-09-13T19:09:24.036Z,60.93
2018-09-13T19:11:52.786Z,60.89
2018-09-13T19:14:21.568Z,61.01
2018-09-13T19:16:50.178Z,60.84
2018-09-13T19:19:18.783Z,60.97
2018-09-13T19:21:47.394Z,60.80
2018-09-13T19:24:16.048Z,60.78
2018-09-13T19:26:44.666Z,60.76
2018-09-13T19:29:13.294Z,60.90
2018-09-13T19:31:41.895Z,60.49
2018-09-13T19:34:10.504Z,60.67
2018-09-13T19:36:39.165Z,61.08
2018-09-13T19:39:10.184Z,60.67
2018-09-13T19:41:39.138Z,60.76
2018-09-13T19:44:07.840Z,60.85
2018-09-13T19:46:36.601Z,60.57
2018-09-13T19:49:05.268Z,60.53
2018-09-13T19:51:33.932Z,60.42
2018-09-13T19:54:02.816Z,60.22
2018-09-13T19:56:31.652Z,60.85
2018-09-13T19:59:00.265Z,61.20
2018-09-13T20:01:29.809Z,60.86
2018-09-13T20:03:58.405Z,60.98
2018-09-13T20:06:27.047Z,61.30
2018-09-13T20:08:55.696Z,61.50
2018-09-13T20:11:24.309Z,61.34
2018-09-13T20:13:53.003Z,61.64
2018-09-13T20:16:21.625Z,61.75
2018-09-13T20:18:50.244Z,62.18
2018-09-13T20:21:18.846Z,62.14
2018-09-13T20:23:49.171Z,62.81
2018-09-13T20:26:18.424Z,63.36
2018-09-13T20:28:47.076Z,63.71
2018-09-13T20:31:15.907Z,63.65
2018-09-13T20:33:44.496Z,64.21
2018-09-13T20:36:13.131Z,64.61
2018-09-13T20:38:41.983Z,64.50
2018-09-13T20:41:10.605Z,64.77
2018-09-13T20:43:39.364Z,64.63
2018-09-13T20:46:07.976Z,64.47
2018-09-13T20:48:36.651Z,64.51
2018-09-13T20:51:05.580Z,64.71
2018-09-13T20:53:34.624Z,64.53
2018-09-13T20:56:03.212Z,64.76
2018-09-13T20:58:31.836Z,65.34
2018-09-13T21:01:00.489Z,65.46
2018-09-13T21:03:29.116Z,65.51
2018-09-13T21:05:57.740Z,65.36
2018-09-13T21:08:26.418Z,65.53
2018-09-13T21:10:55.245Z,65.21
2018-09-13T21:13:23.844Z,65.60
2018-09-13T21:15:52.460Z,65.66
2018-09-13T21:18:21.077Z,65.63
2018-09-13T21:20:49.660Z,65.46
2018-09-13T21:23:18.225Z,65.37
2018-09-13T21:25:46.827Z,65.62
2018-09-13T21:28:15.500Z,65.53
2018-09-13T21:30:44.076Z,65.94
2018-09-13T21:33:12.749Z,65.65
2018-09-13T21:35:41.374Z,65.98
2018-09-13T21:38:09.992Z,65.82
2018-09-13T21:40:38.645Z,66.06
2018-09-13T21:43:07.285Z,66.00
2018-09-13T21:45:35.895Z,66.66
2018-09-13T21:48:04.528Z,66.51
2018-09-13T21:50:33.175Z,66.82
2018-09-13T21:53:01.825Z,66.50
2018-09-13T21:57:58.048Z,66.94
2018-09-13T22:00:26.643Z,67.13
2018-09-13T22:02:55.822Z,67.12
2018-09-13T22:05:24.525Z,67.21
2018-09-13T22:07:53.340Z,67.18
2018-09-13T22:10:22.073Z,66.93
2018-09-13T22:12:50.701Z,67.40
2018-09-13T22:15:19.346Z,67.82
2018-09-13T22:17:48.087Z,68.13
2018-09-13T22:20:16.909Z,67.89
2018-09-13T22:22:45.550Z,68.06
2018-09-13T22:25:14.228Z,67.64
2018-09-13T22:27:42.854Z,67.67
2018-09-13T22:30:11.582Z,68.09
2018-09-13T22:32:40.221Z,68.24
2018-09-13T22:35:09.086Z,68.53
2018-09-13T22:37:37.749Z,69.02
2018-09-13T22:40:08.315Z,69.39
2018-09-13T22:42:36.960Z,69.99
2018-09-13T22:45:05.886Z,71.60
2018-09-13T22:47:34.599Z,71.97
2018-09-13T22:50:03.287Z,72.45
2018-09-13T22:52:32.042Z,72.99
2018-09-13T22:55:00.726Z,73.51
2018-09-13T22:57:29.525Z,74.13
2018-09-13T22:59:58.167Z,74.31
2018-09-13T23:02:26.790Z,75.13
2018-09-13T23:04:55.530Z,75.59
2018-09-13T23:07:24.215Z,76.13
2018-09-13T23:09:52.930Z,76.28
2018-09-13T23:12:22.399Z,76.52
2018-09-13T23:14:51.356Z,76.83
2018-09-13T23:17:20.029Z,77.07
2018-09-13T23:19:49.692Z,77.62
2018-09-13T23:22:18.332Z,77.58
2018-09-13T23:24:47.522Z,77.38
2018-09-13T23:27:16.698Z,78.01
2018-09-13T23:29:45.321Z,78.00
2018-09-13T23:32:14.008Z,78.11
2018-09-13T23:34:42.974Z,78.86
2018-09-13T23:37:11.615Z,78.44
2018-09-13T23:39:40.492Z,78.82
2018-09-13T23:42:09.153Z,78.99
2018-09-13T23:44:37.877Z,78.99
2018-09-13T23:47:06.529Z,79.46
2018-09-13T23:49:35.839Z,78.97
2018-09-13T23:52:04.805Z,79.20
2018-09-13T23:54:33.436Z,79.46
2018-09-13T23:57:02.555Z,79.39
2018-09-13T23:59:31.362Z,79.35
